Time;durP1;ratioP1;P1;durP2;ratioP2;P2;SDS_P1;SDS_P2;PMS_P1;PMS_P2;Temp;Humidity;BMP_temperature;BMP_pressure;BME280_temperature;BME280_humidity;BME280_pressure;Samples;Min_cycle;Max_cycle;Signal;HPM_P1;HPM_P2
2021/04/18 00:00:58;;;;;;;8.23;3.55;;;9.30;60.20;;;;;;6185909;23;20004;-58
2021/04/18 00:03:24;;;;;;;7.97;3.92;;;9.30;60.20;;;;;;6184366;23;20013;-58
2021/04/18 00:05:49;;;;;;;6.32;3.58;;;9.30;60.20;;;;;;6185515;23;20004;-58
2021/04/18 00:08:15;;;;;;;11.00;3.88;;;9.30;60.20;;;;;;6185856;23;20084;-58
2021/04/18 00:10:41;;;;;;;4.45;3.05;;;9.30;60.20;;;;;;6185584;23;20043;-58
2021/04/18 00:13:10;;;;;;;8.88;3.33;;;9.30;60.30;;;;;;6185393;23;20005;-58
2021/04/18 00:15:38;;;;;;;5.72;3.03;;;9.30;60.30;;;;;;6208647;23;20008;-58
2021/04/18 00:18:04;;;;;;;9.30;3.17;;;9.30;60.30;;;;;;6184213;23;20467;-57
2021/04/18 00:20:30;;;;;;;7.63;3.38;;;9.30;60.40;;;;;;6185468;23;20012;-58
2021/04/18 00:22:56;;;;;;;5.55;3.10;;;9.30;60.40;;;;;;6186016;23;20062;-58
2021/04/18 00:25:21;;;;;;;7.10;4.05;;;9.20;60.30;;;;;;6185679;23;20024;-57
2021/04/18 00:27:47;;;;;;;6.18;3.08;;;9.20;60.40;;;;;;6186098;23;20005;-58
2021/04/18 00:30:20;;;;;;;7.45;3.50;;;9.30;60.40;;;;;;6185345;23;20001;-58
2021/04/18 00:32:45;;;;;;;11.20;3.10;;;9.30;60.50;;;;;;6208831;23;20345;-58
2021/04/18 00:35:12;;;;;;;6.97;3.67;;;9.30;60.50;;;;;;6186144;23;20005;-58
2021/04/18 00:37:41;;;;;;;5.97;3.08;;;9.30;60.50;;;;;;6208820;23;20005;-58
2021/04/18 00:40:11;;;;;;;5.50;2.92;;;9.30;60.50;;;;;;6185355;23;20016;-58
2021/04/18 00:42:37;;;;;;;6.45;3.13;;;9.20;60.40;;;;;;6185684;23;20009;-58
2021/04/18 00:45:08;;;;;;;6.13;2.83;;;9.30;60.50;;;;;;6184822;23;20007;-58
2021/04/18 00:47:33;;;;;;;5.32;3.20;;;9.20;60.50;;;;;;6185496;23;20005;-58
2021/04/18 00:50:00;;;;;;;7.50;3.40;;;9.30;60.60;;;;;;6183744;23;20005;-58
2021/04/18 00:52:26;;;;;;;10.02;3.28;;;9.20;60.50;;;;;;6185878;23;20005;-58
2021/04/18 00:54:52;;;;;;;8.13;2.97;;;9.20;60.50;;;;;;6184088;23;20369;-58
2021/04/18 00:57:18;;;;;;;4.78;3.25;;;9.20;60.60;;;;;;6185744;23;20080;-58
2021/04/18 00:59:44;;;;;;;5.70;2.65;;;9.30;60.60;;;;;;6185117;23;20012;-58
2021/04/18 01:02:10;;;;;;;5.40;3.13;;;9.20;60.60;;;;;;6185183;23;20005;-58
2021/04/18 01:04:36;;;;;;;5.25;3.10;;;9.20;60.60;;;;;;6186033;23;20079;-57
2021/04/18 01:07:02;;;;;;;4.22;2.80;;;9.20;60.60;;;;;;6185567;23;20023;-58
2021/04/18 01:09:29;;;;;;;9.75;4.03;;;9.20;60.70;;;;;;6184991;23;20009;-58
2021/04/18 01:11:55;;;;;;;5.72;3.10;;;9.20;60.70;;;;;;6185424;23;20005;-58
2021/04/18 01:14:21;;;;;;;6.85;2.95;;;9.20;60.70;;;;;;6208535;23;20012;-58
2021/04/18 01:16:47;;;;;;;6.60;3.22;;;9.20;60.60;;;;;;6185036;23;20028;-58
2021/04/18 01:19:12;;;;;;;4.00;2.95;;;9.20;60.60;;;;;;6184953;23;20168;-58
2021/04/18 01:21:38;;;;;;;3.78;2.78;;;9.20;60.70;;;;;;6185663;23;20055;-58
2021/04/18 01:24:05;;;;;;;4.72;3.15;;;9.20;60.80;;;;;;6185608;23;20060;-58
2021/04/18 01:26:31;;;;;;;7.72;3.22;;;9.20;60.70;;;;;;6185231;23;20020;-58
2021/04/18 01:28:57;;;;;;;5.65;3.15;;;9.20;60.80;;;;;;6185155;23;20016;-58
2021/04/18 01:31:23;;;;;;;8.48;3.28;;;9.20;60.80;;;;;;6185642;23;20301;-58
2021/04/18 01:33:49;;;;;;;6.30;3.58;;;9.20;60.80;;;;;;6185649;23;20086;-57
2021/04/18 01:36:15;;;;;;;4.05;3.22;;;9.20;60.80;;;;;;6185475;23;20072;-57
2021/04/18 01:38:40;;;;;;;5.20;3.13;;;9.20;60.80;;;;;;6208339;23;20001;-58
2021/04/18 01:41:08;;;;;;;3.28;2.97;;;9.20;60.90;;;;;;6185436;23;20008;-58
2021/04/18 01:43:34;;;;;;;5.18;3.20;;;9.20;60.80;;;;;;6207813;23;20021;-58
2021/04/18 01:46:00;;;;;;;5.35;3.03;;;9.20;60.90;;;;;;6184664;23;20313;-58
2021/04/18 01:48:25;;;;;;;5.75;3.20;;;9.20;60.90;;;;;;6184890;23;20001;-58
2021/04/18 01:50:52;;;;;;;5.13;3.03;;;9.20;60.90;;;;;;6184954;23;20528;-58
2021/04/18 01:53:18;;;;;;;10.90;3.67;;;9.20;60.90;;;;;;6185132;23;20004;-58
2021/04/18 01:55:43;;;;;;;7.25;3.70;;;9.20;60.90;;;;;;6186152;23;20005;-58
2021/04/18 01:58:09;;;;;;;7.90;3.42;;;9.20;60.90;;;;;;6186828;23;20059;-58
2021/04/18 02:00:35;;;;;;;4.75;3.20;;;9.20;60.90;;;;;;6187022;23;20300;-58
2021/04/18 02:03:01;;;;;;;6.60;3.45;;;9.20;61.00;;;;;;6187023;23;20020;-58
2021/04/18 02:05:30;;;;;;;6.45;3.22;;;9.20;60.90;;;;;;6186072;23;20008;-58
2021/04/18 02:07:56;;;;;;;5.60;3.30;;;9.20;60.90;;;;;;6186737;23;20005;-58
2021/04/18 02:10:22;;;;;;;5.15;3.28;;;9.20;60.90;;;;;;6186607;23;20008;-58
2021/04/18 02:12:47;;;;;;;7.68;3.78;;;9.20;61.00;;;;;;6210095;23;20005;-58
2021/04/18 02:15:15;;;;;;;6.03;3.13;;;9.20;61.00;;;;;;6187124;23;20119;-58
2021/04/18 02:17:41;;;;;;;6.95;3.50;;;9.20;61.00;;;;;;6186876;23;20005;-58
2021/04/18 02:20:07;;;;;;;7.10;3.53;;;9.20;61.00;;;;;;6186196;23;20032;-58
2021/04/18 02:22:34;;;;;;;6.30;3.63;;;9.20;61.10;;;;;;6185151;23;20036;-58
2021/04/18 02:25:00;;;;;;;4.32;2.95;;;9.20;61.00;;;;;;6186996;23;20004;-58
2021/04/18 02:27:27;;;;;;;7.18;3.50;;;9.20;61.00;;;;;;6186788;23;20016;-58
2021/04/18 02:29:56;;;;;;;6.40;3.15;;;9.20;61.10;;;;;;6185068;23;20196;-58
2021/04/18 02:32:22;;;;;;;5.75;3.33;;;9.30;61.10;;;;;;6185014;23;20092;-58
2021/04/18 02:34:50;;;;;;;5.53;3.05;;;9.30;61.20;;;;;;6186918;23;20004;-58
2021/04/18 02:37:16;;;;;;;5.82;3.55;;;9.20;61.10;;;;;;6186504;23;20009;-58
2021/04/18 02:39:42;;;;;;;8.18;3.38;;;9.20;61.10;;;;;;6184903;23;20007;-58
2021/04/18 02:42:07;;;;;;;6.53;3.42;;;9.20;61.20;;;;;;6186370;23;20084;-58
2021/04/18 02:44:33;;;;;;;4.85;3.47;;;9.20;61.10;;;;;;6183447;23;20092;-58
2021/04/18 02:46:59;;;;;;;6.50;3.53;;;9.20;61.20;;;;;;6186686;23;20004;-58
2021/04/18 02:49:25;;;;;;;6.43;3.47;;;9.20;61.20;;;;;;6185732;23;20016;-58
2021/04/18 02:51:50;;;;;;;8.65;4.00;;;9.20;61.20;;;;;;6186285;23;20004;-58
2021/04/18 02:54:16;;;;;;;7.72;3.50;;;9.20;61.20;;;;;;6186406;23;20006;-58
2021/04/18 02:56:42;;;;;;;6.45;3.80;;;9.20;61.30;;;;;;6186912;23;20024;-58
2021/04/18 02:59:08;;;;;;;9.75;3.75;;;9.20;61.20;;;;;;6184674;23;20005;-57
2021/04/18 03:01:35;;;;;;;6.18;3.00;;;9.20;61.20;;;;;;6186834;23;20008;-58
2021/04/18 03:04:01;;;;;;;6.15;3.47;;;9.20;61.20;;;;;;6186729;23;20040;-58
2021/04/18 03:06:26;;;;;;;6.82;3.42;;;9.20;61.30;;;;;;6209365;23;20305;-58
2021/04/18 03:08:52;;;;;;;5.07;3.13;;;9.20;61.30;;;;;;6186144;23;20011;-58
2021/04/18 03:11:18;;;;;;;10.38;3.78;;;9.20;61.40;;;;;;6186358;23;20048;-58
2021/04/18 03:13:45;;;;;;;5.15;3.40;;;9.20;61.30;;;;;;6186309;23;20001;-58
2021/04/18 03:16:11;;;;;;;9.48;3.38;;;9.20;61.30;;;;;;6209726;23;20396;-58
2021/04/18 03:18:36;;;;;;;5.40;3.15;;;9.20;61.30;;;;;;6186014;23;20001;-58
2021/04/18 03:21:03;;;;;;;5.28;3.40;;;9.20;61.30;;;;;;6186140;23;20067;-58
2021/04/18 03:23:28;;;;;;;5.55;3.63;;;9.20;61.40;;;;;;6185960;23;20009;-58
2021/04/18 03:25:54;;;;;;;5.97;3.97;;;9.20;61.40;;;;;;6186154;23;20079;-58
2021/04/18 03:28:19;;;;;;;8.95;3.55;;;9.20;61.40;;;;;;6184505;23;20096;-58
2021/04/18 03:30:45;;;;;;;5.65;3.42;;;9.20;61.50;;;;;;6184452;23;20474;-58
2021/04/18 03:33:11;;;;;;;8.27;3.25;;;9.20;61.50;;;;;;6184779;23;20001;-58
2021/04/18 03:35:37;;;;;;;8.48;4.28;;;9.20;61.40;;;;;;6186315;23;20008;-58
2021/04/18 03:38:03;;;;;;;5.10;4.00;;;9.20;61.50;;;;;;6209525;23;20005;-58
2021/04/18 03:40:32;;;;;;;7.78;3.83;;;9.20;61.50;;;;;;6185623;23;20056;-57
2021/04/18 03:42:57;;;;;;;6.25;4.10;;;9.20;61.50;;;;;;6186152;23;20023;-58
2021/04/18 03:45:23;;;;;;;6.03;4.10;;;9.20;61.60;;;;;;6185906;23;20076;-58
2021/04/18 03:47:49;;;;;;;7.38;4.22;;;9.20;61.50;;;;;;6186147;23;20009;-58
2021/04/18 03:50:17;;;;;;;6.63;4.30;;;9.20;61.60;;;;;;6185517;23;20005;-58
2021/04/18 03:52:43;;;;;;;6.75;3.78;;;9.20;61.50;;;;;;6209412;23;20005;-58
2021/04/18 03:55:09;;;;;;;6.20;3.88;;;9.20;61.60;;;;;;6185871;23;20035;-58
2021/04/18 03:57:34;;;;;;;4.65;3.63;;;9.20;61.60;;;;;;6185945;23;20009;-58
2021/04/18 04:00:00;;;;;;;5.30;3.15;;;9.20;62.40;;;;;;6185507;23;20353;-58
2021/04/18 04:02:26;;;;;;;6.90;3.72;;;9.20;61.60;;;;;;6185888;23;20012;-58
2021/04/18 04:04:51;;;;;;;8.65;4.22;;;9.20;61.70;;;;;;6185929;23;20001;-57
2021/04/18 04:07:17;;;;;;;6.65;4.13;;;9.20;61.70;;;;;;6185564;23;20028;-58
2021/04/18 04:09:42;;;;;;;5.75;3.42;;;9.20;61.60;;;;;;6185643;23;20084;-58
2021/04/18 04:12:08;;;;;;;6.30;3.75;;;9.20;61.70;;;;;;6186189;23;20005;-58
2021/04/18 04:14:34;;;;;;;6.35;4.05;;;9.20;61.70;;;;;;6186017;23;20001;-58
2021/04/18 04:16:59;;;;;;;7.65;3.92;;;9.20;61.70;;;;;;6185874;23;20286;-58
2021/04/18 04:19:25;;;;;;;7.75;4.35;;;9.20;61.80;;;;;;6185343;23;20467;-58
2021/04/18 04:21:51;;;;;;;7.78;4.50;;;9.20;61.70;;;;;;6208927;23;20004;-58
2021/04/18 04:24:16;;;;;;;7.10;4.22;;;9.20;62.20;;;;;;6185802;23;20309;-58
2021/04/18 04:26:42;;;;;;;7.65;4.32;;;9.20;61.80;;;;;;6185495;23;20305;-58
2021/04/18 04:29:07;;;;;;;6.50;3.88;;;9.20;61.80;;;;;;6185191;23;20059;-58
2021/04/18 04:31:33;;;;;;;7.10;4.65;;;9.20;61.80;;;;;;6185540;23;20356;-58
2021/04/18 04:33:59;;;;;;;12.25;4.05;;;9.20;61.80;;;;;;6185813;23;20008;-58
2021/04/18 04:36:24;;;;;;;7.03;4.40;;;9.20;61.80;;;;;;6185523;23;20417;-58
2021/04/18 04:38:50;;;;;;;7.35;4.30;;;9.20;61.80;;;;;;6185425;23;20004;-58
2021/04/18 04:41:16;;;;;;;8.48;4.95;;;9.20;62.00;;;;;;6185347;23;20008;-58
2021/04/18 04:43:45;;;;;;;8.88;4.85;;;9.20;61.80;;;;;;6185621;23;20013;-58
2021/04/18 04:46:11;;;;;;;5.78;4.10;;;9.20;61.90;;;;;;6185563;23;20065;-58
2021/04/18 04:48:37;;;;;;;10.10;5.20;;;9.20;61.90;;;;;;6185614;23;20005;-58
2021/04/18 04:51:02;;;;;;;8.63;4.47;;;9.20;62.00;;;;;;6185239;23;20305;-58
2021/04/18 04:53:28;;;;;;;8.45;4.13;;;9.20;62.00;;;;;;6185467;23;20417;-58
2021/04/18 04:55:53;;;;;;;11.32;4.68;;;9.20;62.00;;;;;;6183681;23;20036;-58
2021/04/18 04:58:19;;;;;;;8.00;4.95;;;9.20;62.00;;;;;;6185293;23;20012;-57
2021/04/18 05:00:44;;;;;;;5.90;4.60;;;9.20;62.00;;;;;;6185102;23;20052;-58
2021/04/18 05:03:10;;;;;;;8.90;4.57;;;9.20;62.00;;;;;;6185501;23;20092;-58
2021/04/18 05:05:36;;;;;;;6.72;4.53;;;9.20;62.00;;;;;;6185562;23;20006;-58
2021/04/18 05:08:02;;;;;;;8.15;4.85;;;9.20;62.00;;;;;;6209092;23;20019;-58
2021/04/18 05:10:27;;;;;;;8.50;4.72;;;9.20;62.00;;;;;;6183675;23;20001;-58
2021/04/18 05:12:53;;;;;;;6.28;4.63;;;9.20;62.10;;;;;;6185446;23;20393;-58
2021/04/18 05:15:22;;;;;;;8.70;4.50;;;9.20;62.10;;;;;;6185571;23;20068;-58
2021/04/18 05:17:51;;;;;;;7.13;5.05;;;9.20;62.10;;;;;;6182763;23;20009;-58
2021/04/18 05:20:19;;;;;;;9.60;4.88;;;9.20;62.10;;;;;;6184540;23;20012;-58
2021/04/18 05:22:45;;;;;;;10.50;5.43;;;9.20;62.10;;;;;;6183860;23;20080;-58
2021/04/18 05:25:12;;;;;;;10.07;5.55;;;9.20;62.20;;;;;;6185242;23;19997;-58
2021/04/18 05:27:38;;;;;;;10.73;5.35;;;9.20;62.20;;;;;;6185406;23;20005;-58
2021/04/18 05:30:05;;;;;;;8.70;5.28;;;9.20;62.20;;;;;;6185128;23;20001;-58
2021/04/18 05:32:32;;;;;;;8.02;5.43;;;9.20;62.20;;;;;;6186792;23;20005;-58
2021/04/18 05:34:57;;;;;;;9.05;5.38;;;9.20;62.20;;;;;;6187165;23;20020;-58
2021/04/18 05:37:23;;;;;;;10.55;4.63;;;9.20;62.20;;;;;;6184772;23;20064;-58
2021/04/18 05:39:49;;;;;;;10.30;5.30;;;9.20;62.20;;;;;;6186466;23;20019;-58
2021/04/18 05:42:14;;;;;;;9.38;5.45;;;9.20;62.20;;;;;;6187181;23;20075;-58
2021/04/18 05:44:40;;;;;;;11.00;5.97;;;9.20;62.30;;;;;;6211022;23;20086;-58
2021/04/18 05:47:05;;;;;;;11.38;6.63;;;9.20;62.20;;;;;;6187100;23;20008;-58
2021/04/18 05:49:31;;;;;;;10.10;5.82;;;9.20;62.20;;;;;;6186420;23;20393;-57
2021/04/18 05:51:57;;;;;;;9.85;5.32;;;9.20;62.20;;;;;;6186697;23;20064;-58
2021/04/18 05:54:22;;;;;;;10.60;5.07;;;9.20;62.20;;;;;;6187363;23;20008;-58
2021/04/18 05:56:48;;;;;;;10.00;5.35;;;9.20;62.30;;;;;;6186791;23;20001;-58
2021/04/18 05:59:14;;;;;;;7.53;5.53;;;9.20;62.20;;;;;;6186943;23;20263;-58
2021/04/18 06:01:40;;;;;;;12.50;5.55;;;9.30;62.30;;;;;;6185097;23;20012;-58
2021/04/18 06:04:05;;;;;;;10.88;5.47;;;9.20;62.30;;;;;;6186591;23;20098;-58
2021/04/18 06:06:31;;;;;;;8.30;5.25;;;9.30;62.30;;;;;;6186846;23;20008;-58
2021/04/18 06:08:57;;;;;;;9.52;5.30;;;9.20;62.30;;;;;;6186951;23;20016;-58
2021/04/18 06:11:22;;;;;;;9.65;5.03;;;9.20;62.30;;;;;;6186982;23;20293;-58
2021/04/18 06:13:49;;;;;;;9.80;5.07;;;9.20;62.30;;;;;;6186985;23;20016;-58
2021/04/18 06:16:15;;;;;;;13.32;6.00;;;9.30;62.40;;;;;;6186747;23;20008;-57
2021/04/18 06:18:40;;;;;;;12.95;5.43;;;9.30;62.30;;;;;;6184662;23;20036;-58
2021/04/18 06:21:06;;;;;;;7.47;4.57;;;9.30;62.30;;;;;;6187136;23;20012;-58
2021/04/18 06:23:32;;;;;;;11.85;5.35;;;9.30;62.30;;;;;;6187071;23;20361;-58
2021/04/18 06:25:57;;;;;;;8.80;5.13;;;9.30;62.30;;;;;;6187463;23;20007;-58
2021/04/18 06:28:23;;;;;;;7.88;4.93;;;9.30;62.30;;;;;;6186178;23;20052;-58
2021/04/18 06:30:49;;;;;;;9.18;5.55;;;9.30;62.20;;;;;;6186564;23;20008;-58
2021/04/18 06:33:16;;;;;;;13.93;5.88;;;9.30;62.30;;;;;;6209939;23;20409;-57
2021/04/18 06:35:41;;;;;;;10.52;6.05;;;9.40;62.40;;;;;;6186700;23;20340;-58
2021/04/18 06:38:08;;;;;;;11.07;5.72;;;9.40;62.30;;;;;;6186751;23;20080;-58
2021/04/18 06:40:34;;;;;;;14.55;5.63;;;9.30;62.20;;;;;;6186900;23;20001;-58
2021/04/18 06:43:03;;;;;;;13.02;6.30;;;9.30;62.30;;;;;;6186097;23;20013;-58
2021/04/18 06:45:29;;;;;;;12.75;6.13;;;9.40;62.30;;;;;;6185356;23;20079;-58
2021/04/18 06:47:55;;;;;;;23.35;5.88;;;9.40;62.30;;;;;;6186553;23;20005;-58
2021/04/18 06:50:20;;;;;;;12.40;6.32;;;9.40;62.30;;;;;;6184761;23;20289;-58
2021/04/18 06:52:47;;;;;;;10.35;5.97;;;9.40;62.30;;;;;;6186692;23;19997;-58
2021/04/18 06:55:13;;;;;;;17.98;7.03;;;9.40;62.30;;;;;;6186359;23;20005;-55
2021/04/18 06:57:39;;;;;;;9.95;5.65;;;9.40;62.50;;;;;;6186916;23;20001;-56
2021/04/18 07:00:07;;;;;;;12.73;6.10;;;9.50;63.00;;;;;;6186293;23;20004;-56
2021/04/18 07:02:34;;;;;;;9.40;5.00;;;9.30;63.10;;;;;;6186687;23;20008;-56
2021/04/18 07:05:11;;;;;;;10.80;5.35;;;9.30;63.50;;;;;;6186379;23;20039;-56
2021/04/18 07:07:43;;;;;;;9.25;5.60;;;9.30;63.70;;;;;;6186468;23;20001;-56
2021/04/18 07:10:13;;;;;;;10.98;4.95;;;9.30;64.00;;;;;;6186489;23;20005;-56
2021/04/18 07:12:39;;;;;;;10.43;4.82;;;9.20;64.10;;;;;;6187028;23;20051;-56
2021/04/18 07:15:05;;;;;;;10.85;4.82;;;9.20;64.00;;;;;;6186695;23;20013;-56
2021/04/18 07:17:31;;;;;;;12.93;5.07;;;9.20;64.20;;;;;;6186001;23;20460;-56
2021/04/18 07:20:08;;;;;;;13.07;5.82;;;9.20;64.30;;;;;;6186101;23;20043;-56
2021/04/18 07:22:34;;;;;;;9.88;5.35;;;9.20;64.40;;;;;;6186284;23;20036;-56
2021/04/18 07:25:00;;;;;;;13.43;6.35;;;9.20;64.30;;;;;;6186489;23;20392;-56
2021/04/18 07:27:46;;;;;;;18.38;5.90;;;9.20;64.70;;;;;;6186634;23;20012;-56
2021/04/18 07:30:13;;;;;;;10.10;5.38;;;9.20;64.90;;;;;;6185880;23;20001;-56
2021/04/18 07:32:39;;;;;;;10.77;6.35;;;9.10;64.90;;;;;;6185956;23;20033;-56
2021/04/18 07:35:06;;;;;;;9.82;5.75;;;9.10;65.20;;;;;;6186429;23;20001;-56
2021/04/18 07:37:34;;;;;;;11.13;5.28;;;9.20;65.00;;;;;;6186109;23;20094;-56
2021/04/18 07:40:03;;;;;;;10.63;5.28;;;9.20;64.80;;;;;;6186012;23;20538;-56
2021/04/18 07:42:30;;;;;;;9.90;5.45;;;9.20;64.70;;;;;;6186201;23;20059;-56
2021/04/18 07:44:58;;;;;;;12.07;6.38;;;9.20;64.90;;;;;;6186051;23;20001;-56
2021/04/18 07:47:25;;;;;;;9.38;5.32;;;9.20;64.80;;;;;;6185800;23;20543;-56
2021/04/18 07:49:52;;;;;;;10.57;5.38;;;9.20;65.60;;;;;;6185746;23;20012;-56
2021/04/18 07:52:19;;;;;;;12.07;5.82;;;9.20;64.80;;;;;;6185987;23;20005;-56
2021/04/18 07:54:45;;;;;;;9.48;5.43;;;9.20;64.80;;;;;;6186341;23;20000;-56
2021/04/18 07:57:11;;;;;;;15.68;6.00;;;9.20;64.60;;;;;;6186249;23;20005;-56
2021/04/18 07:59:38;;;;;;;12.13;6.65;;;9.20;64.80;;;;;;6185385;23;20080;-56
2021/04/18 08:02:05;;;;;;;8.75;5.30;;;9.20;65.30;;;;;;6185905;23;20009;-56
2021/04/18 08:04:32;;;;;;;8.98;5.07;;;9.20;65.10;;;;;;6186224;23;20016;-56
2021/04/18 08:07:01;;;;;;;11.52;6.28;;;9.20;65.60;;;;;;6185823;23;20051;-56
2021/04/18 08:09:26;;;;;;;11.20;5.10;;;9.20;65.90;;;;;;6185304;23;20084;-56
2021/04/18 08:12:11;;;;;;;8.27;4.40;;;9.20;65.80;;;;;;6186207;23;20036;-56
2021/04/18 08:14:38;;;;;;;11.43;5.70;;;9.20;65.40;;;;;;6185779;23;20001;-56
2021/04/18 08:17:17;;;;;;;12.85;4.95;;;9.20;65.50;;;;;;6185915;23;20005;-57
2021/04/18 08:19:57;;;;;;;8.02;4.80;;;9.20;65.40;;;;;;6185088;23;20009;-56
2021/04/18 08:22:24;;;;;;;8.68;4.78;;;9.20;65.60;;;;;;6186160;23;20080;-56
2021/04/18 08:25:07;;;;;;;9.88;5.13;;;9.20;65.70;;;;;;6185873;23;20025;-56
2021/04/18 08:27:59;;;;;;;7.95;4.82;;;9.20;65.90;;;;;;6185855;23;20025;-56
2021/04/18 08:30:25;;;;;;;8.40;4.50;;;9.20;66.00;;;;;;6186053;23;20017;-56
2021/04/18 08:32:52;;;;;;;5.97;4.15;;;9.20;66.40;;;;;;6185976;23;20001;-56
2021/04/18 08:35:20;;;;;;;7.50;4.10;;;9.20;66.50;;;;;;6185619;23;20397;-56
2021/04/18 08:38:11;;;;;;;6.70;4.03;;;9.20;66.80;;;;;;6186017;23;20005;-56
2021/04/18 08:40:37;;;;;;;8.05;4.53;;;9.20;66.50;;;;;;6185398;23;20005;-56
2021/04/18 08:43:26;;;;;;;7.38;4.63;;;9.20;66.50;;;;;;6185844;23;20016;-56
2021/04/18 08:45:57;;;;;;;6.70;3.55;;;9.30;67.00;;;;;;6185963;23;20032;-56
2021/04/18 08:48:23;;;;;;;7.32;4.43;;;9.30;66.90;;;;;;6185303;23;20008;-56
2021/04/18 08:50:52;;;;;;;7.88;4.30;;;9.30;66.90;;;;;;6185397;23;20001;-56
2021/04/18 08:53:18;;;;;;;12.45;4.28;;;9.30;67.60;;;;;;6185237;23;20472;-56
2021/04/18 08:55:58;;;;;;;9.40;4.95;;;9.30;67.50;;;;;;6185352;23;20001;-56
2021/04/18 08:58:35;;;;;;;13.43;4.93;;;9.30;67.30;;;;;;6185124;23;20048;-56
2021/04/18 09:01:12;;;;;;;9.68;4.55;;;9.30;67.20;;;;;;6185244;23;20409;-56
2021/04/18 09:03:39;;;;;;;11.00;5.03;;;9.30;67.10;;;;;;6185596;23;20017;-56
2021/04/18 09:06:10;;;;;;;12.77;5.90;;;9.30;67.10;;;;;;6186724;23;20390;-56
2021/04/18 09:08:53;;;;;;;13.32;6.13;;;9.30;67.20;;;;;;6187402;23;20040;-56
2021/04/18 09:11:20;;;;;;;11.65;6.35;;;9.40;67.10;;;;;;6187827;23;20012;-56
2021/04/18 09:13:58;;;;;;;14.30;6.55;;;9.40;66.90;;;;;;6187219;23;20040;-55
2021/04/18 09:16:30;;;;;;;10.98;5.55;;;9.40;66.80;;;;;;6187747;23;20435;-56
2021/04/18 09:19:18;;;;;;;16.40;6.13;;;9.40;66.50;;;;;;6186983;23;20098;-56
2021/04/18 09:22:08;;;;;;;10.48;6.07;;;9.40;66.60;;;;;;6177973;23;20015;-51
2021/04/18 09:24:58;;;;;;;15.45;5.93;;;9.40;67.10;;;;;;6187503;23;20313;-49
2021/04/18 09:27:31;;;;;;;15.15;7.00;;;9.40;66.80;;;;;;6179787;23;20487;-53
2021/04/18 09:30:04;;;;;;;15.10;5.75;;;9.40;66.90;;;;;;6187223;23;20001;-52
2021/04/18 09:32:35;;;;;;;9.43;5.18;;;9.40;66.90;;;;;;6187312;23;20397;-51
2021/04/18 09:35:03;;;;;;;14.63;6.63;;;9.40;66.70;;;;;;6187481;23;20290;-51
2021/04/18 09:37:34;;;;;;;15.57;7.00;;;9.40;66.80;;;;;;6187573;23;20312;-51
2021/04/18 09:40:23;;;;;;;13.10;6.15;;;9.40;67.00;;;;;;6186632;23;20396;-51
2021/04/18 09:42:51;;;;;;;12.85;6.25;;;9.40;66.90;;;;;;6186914;23;20009;-50
2021/04/18 09:45:19;;;;;;;11.30;5.70;;;9.40;66.70;;;;;;6187034;23;20008;-51
2021/04/18 09:47:50;;;;;;;13.75;6.30;;;9.40;66.70;;;;;;6187346;23;20465;-62
2021/04/18 09:50:23;;;;;;;14.13;6.07;;;9.50;67.30;;;;;;6186559;23;20131;-60
2021/04/18 09:52:50;;;;;;;15.35;6.80;;;9.40;67.10;;;;;;6185726;23;20079;-58
2021/04/18 09:55:18;;;;;;;13.02;5.93;;;9.40;67.20;;;;;;6185631;23;20052;-54
2021/04/18 09:57:56;;;;;;;10.73;5.70;;;9.20;67.50;;;;;;6187373;23;20109;-58
2021/04/18 10:00:24;;;;;;;12.20;5.65;;;9.20;68.10;;;;;;6186851;23;20002;-58
2021/04/18 10:03:00;;;;;;;11.23;4.93;;;9.20;68.60;;;;;;6186361;23;20413;-58
2021/04/18 10:05:26;;;;;;;12.13;5.15;;;9.20;68.30;;;;;;6186957;23;20009;-58
2021/04/18 10:08:20;;;;;;;9.57;5.78;;;9.30;68.10;;;;;;6210648;23;20080;-58
2021/04/18 10:10:49;;;;;;;14.45;10.13;;;9.30;68.10;;;;;;6186930;23;20313;-55
2021/04/18 10:13:15;;;;;;;15.18;7.15;;;9.30;68.10;;;;;;6186801;23;20526;-58
2021/04/18 10:15:51;;;;;;;13.75;5.28;;;9.30;68.30;;;;;;6186909;23;19997;-51
2021/04/18 10:18:18;;;;;;;11.68;5.53;;;9.10;68.60;;;;;;6187271;23;20017;-58
2021/04/18 10:20:44;;;;;;;10.02;5.22;;;9.30;68.40;;;;;;6186528;23;20013;-57
2021/04/18 10:23:10;;;;;;;13.73;5.43;;;9.30;67.90;;;;;;6187324;23;20028;-57
2021/04/18 10:25:39;;;;;;;11.57;5.25;;;9.30;68.00;;;;;;6186455;23;20376;-57
2021/04/18 10:28:06;;;;;;;14.82;5.20;;;9.40;68.00;;;;;;6186854;23;20009;-57
2021/04/18 10:30:33;;;;;;;14.55;6.20;;;9.30;67.70;;;;;;6184776;23;20005;-58
2021/04/18 10:32:58;;;;;;;16.35;7.20;;;9.40;67.70;;;;;;6187028;23;20005;-57
2021/04/18 10:35:25;;;;;;;15.85;6.65;;;9.30;67.90;;;;;;6186889;23;20135;-57
2021/04/18 10:37:51;;;;;;;18.27;5.63;;;9.30;67.80;;;;;;6186626;23;20491;-57
2021/04/18 10:40:19;;;;;;;11.43;5.60;;;9.30;67.70;;;;;;6186484;23;19997;-57
2021/04/18 10:42:44;;;;;;;14.57;6.03;;;9.40;67.90;;;;;;6186952;23;20401;-57
2021/04/18 10:45:12;;;;;;;16.33;6.45;;;9.30;67.70;;;;;;6187071;23;19997;-57
2021/04/18 10:47:37;;;;;;;27.77;9.43;;;9.30;67.70;;;;;;6186739;23;20040;-56
2021/04/18 10:50:04;;;;;;;15.45;5.95;;;9.30;67.50;;;;;;6185754;23;20005;-55
2021/04/18 10:52:31;;;;;;;14.38;6.45;;;9.20;67.60;;;;;;6184918;23;20009;-56
2021/04/18 10:54:56;;;;;;;9.45;5.35;;;9.20;67.70;;;;;;6185867;23;20028;-55
2021/04/18 10:57:23;;;;;;;12.25;5.63;;;9.10;67.10;;;;;;6182705;23;20056;-55
2021/04/18 10:59:49;;;;;;;13.35;6.30;;;8.90;67.30;;;;;;6182008;23;20313;-56
2021/04/18 11:02:15;;;;;;;12.82;5.93;;;9.10;67.40;;;;;;6182891;23;19997;-55
2021/04/18 11:04:41;;;;;;;16.52;6.05;;;9.20;67.20;;;;;;6182738;23;20005;-56
2021/04/18 11:07:08;;;;;;;12.25;5.53;;;9.10;67.10;;;;;;6182517;23;20312;-55
2021/04/18 11:09:35;;;;;;;15.15;6.05;;;9.10;67.20;;;;;;6183740;23;20005;-55
2021/04/18 11:12:01;;;;;;;10.15;5.70;;;9.20;66.80;;;;;;6186359;23;20071;-55
2021/04/18 11:14:27;;;;;;;12.95;6.70;;;9.30;66.90;;;;;;6186075;23;20001;-56
2021/04/18 11:16:53;;;;;;;15.25;7.35;;;9.20;66.80;;;;;;6184934;23;20346;-55
2021/04/18 11:19:18;;;;;;;11.57;5.72;;;9.10;67.10;;;;;;6182947;23;20016;-55
2021/04/18 11:21:44;;;;;;;13.75;5.78;;;9.20;66.90;;;;;;6182803;23;20035;-55
2021/04/18 11:24:10;;;;;;;16.95;6.78;;;9.30;66.90;;;;;;6182842;23;20072;-55
2021/04/18 11:26:35;;;;;;;14.25;5.65;;;9.30;67.00;;;;;;6183746;23;20009;-56
2021/04/18 11:29:02;;;;;;;10.93;5.53;;;9.30;66.80;;;;;;6183750;23;20022;-55
2021/04/18 11:31:28;;;;;;;14.75;6.38;;;9.20;66.80;;;;;;6183446;23;20016;-55
2021/04/18 11:33:53;;;;;;;17.60;6.40;;;9.30;66.80;;;;;;6182958;23;20001;-55
2021/04/18 11:36:19;;;;;;;12.45;6.25;;;9.10;67.00;;;;;;6185983;23;19997;-55
2021/04/18 11:38:46;;;;;;;18.98;6.68;;;9.10;67.30;;;;;;6183663;23;20009;-55
2021/04/18 11:41:12;;;;;;;16.08;6.30;;;9.10;67.30;;;;;;6183042;23;20021;-55
2021/04/18 11:43:38;;;;;;;12.30;5.60;;;8.90;67.80;;;;;;6182408;23;20503;-54
2021/04/18 11:46:06;;;;;;;12.73;5.13;;;8.90;68.00;;;;;;6183268;23;20016;-55
2021/04/18 11:48:32;;;;;;;17.58;5.30;;;9.00;68.00;;;;;;6183114;23;20405;-55
2021/04/18 11:50:58;;;;;;;18.02;6.18;;;9.10;67.80;;;;;;6183151;23;20008;-55
2021/04/18 11:53:23;;;;;;;15.50;6.45;;;9.10;67.80;;;;;;6183349;23;20009;-55
2021/04/18 11:55:49;;;;;;;13.68;6.18;;;9.10;68.00;;;;;;6183099;23;20294;-55
2021/04/18 11:58:15;;;;;;;14.32;6.03;;;9.10;67.60;;;;;;6185013;23;20033;-55
2021/04/18 12:00:40;;;;;;;14.85;5.95;;;9.00;68.00;;;;;;6185485;23;20065;-55
2021/04/18 12:03:06;;;;;;;19.67;6.28;;;9.00;67.90;;;;;;6184407;23;20024;-55
2021/04/18 12:05:32;;;;;;;10.32;5.25;;;9.00;67.90;;;;;;6185620;23;20043;-55
2021/04/18 12:07:59;;;;;;;16.25;6.18;;;9.10;67.70;;;;;;6185744;23;20305;-54
2021/04/18 12:10:24;;;;;;;14.38;6.18;;;9.10;67.50;;;;;;6184732;23;20002;-54
2021/04/18 12:12:50;;;;;;;11.68;5.75;;;8.90;67.70;;;;;;6186128;23;20028;-54
2021/04/18 12:15:16;;;;;;;13.20;6.10;;;8.90;67.80;;;;;;6186052;23;20009;-54
2021/04/18 12:17:42;;;;;;;13.25;5.65;;;8.90;68.00;;;;;;6186294;23;20001;-54
2021/04/18 12:20:10;;;;;;;15.18;5.07;;;9.10;67.90;;;;;;6185387;23;20329;-54
2021/04/18 12:22:37;;;;;;;16.85;5.38;;;9.10;67.60;;;;;;6185803;23;20009;-54
2021/04/18 12:25:04;;;;;;;10.88;5.75;;;9.10;67.80;;;;;;6185680;23;20384;-54
2021/04/18 12:27:29;;;;;;;7.55;4.80;;;9.10;67.80;;;;;;6185758;23;20104;-54
2021/04/18 12:29:55;;;;;;;14.20;5.60;;;9.10;67.60;;;;;;6185707;23;20036;-54
2021/04/18 12:32:22;;;;;;;16.08;5.63;;;9.10;67.40;;;;;;6185716;23;20001;-54
2021/04/18 12:34:48;;;;;;;10.88;4.75;;;9.20;67.30;;;;;;6185850;23;20048;-54
2021/04/18 12:37:14;;;;;;;12.93;5.90;;;9.20;67.20;;;;;;6184794;23;20004;-54
2021/04/18 12:39:40;;;;;;;11.30;5.10;;;9.20;67.20;;;;;;6185427;23;20005;-53
2021/04/18 12:42:06;;;;;;;13.27;5.90;;;9.20;67.20;;;;;;6184958;23;20093;-54
2021/04/18 12:44:32;;;;;;;21.67;7.03;;;9.20;67.00;;;;;;6185886;23;20427;-55
2021/04/18 12:46:57;;;;;;;20.33;7.80;;;9.20;67.20;;;;;;6184855;23;20089;-55
2021/04/18 12:49:23;;;;;;;14.40;5.80;;;9.20;67.10;;;;;;6185595;23;20068;-56
2021/04/18 12:51:49;;;;;;;14.00;6.50;;;9.30;67.00;;;;;;6185560;23;20008;-55
2021/04/18 12:54:14;;;;;;;18.15;5.85;;;9.40;67.00;;;;;;6185634;23;20393;-55